Αρχική σελίδα
METAR-TAF:

METAR-TAF

Αεροδρόμια :

Aoba Island, Βανουάτου

γεωγραφικό πλάτος: 15-18-24S, γεωγραφικό μήκος: 167-58-02E, υψόμετρο: 51 μ

Παρών καιρός

Η αναφορά έγινε 8 ώρες και 10 λεπτά πριν, στις 21:00 UTC
Άνεμος 12 kt από Ν/NA
Θερμοκρασία 28°C
Υγρασία 79%
Πίεση 1014 hPa
Ορατότητα 10 χλμ και άνω
Διάσπαρτα νέφη σε ύψος 2000 πόδια
Αρκετά νέφη σε ύψος 4000 πόδια

METAR: NVSG 242100Z 15012KT 9999 SCT020 BKN040 28/24 Q1014

Χρόνος: 16:10 (05:10 UTC)

Πρόγνωση Καιρού

Η αναφορά έγινε 6 ώρες και 10 λεπτά πριν, στις 23:00 UTC
Η πρόγνωση ισχύει από τις 25 στις 00 UTC έως τις 25 στις 24 UTC
Άνεμος 12 kt από ΝA
Ορατότητα: 9000 μ
Διάσπαρτα νέφη σε ύψος 2000 πόδια
Αρκετά νέφη σε ύψος 4000 πόδια
Αρκετά νέφη σε ύψος 1800 πόδια
Νεφοσκεπής σε ύψος 3800 πόδια
Όμβροι,

TAF: NVSG 242300Z 2500/2524 14012KT 9999 SCT020 BKN040 INTER 2500/2506 9000 SHRA BKN018 OVC038

Μετεωρολογικές αναφορές και προγνώσεις για περισσότερα από 4000 αεροδρόμια (δελτία METAR και TAF).

Οι διαθέσιμοι σταθμοί απεικονίζονται στο χάρτη με κίτρινες και κόκκινες κουκκίδες.

Μετακινήστε το ποντίκι πάνω από τις κουκκίδες για να δείτε το όνομα του σταθμού.

Στη συνέχεια, κάντε κλικ για να δείτε τις μετεωρολογικές αναφορές και τις προγνώσεις καιρού.

Για να αλλάξετε το χάρτη: κάντε κλικ στα πράσινα κουμπιά με τον μαύρο σταυρό για να ζουμάρετε, στο πράσινο κουμπί με την παύλα για να αφαιρέσετε το ζουμ ή στα πράσινα βέλη για να αντιπαραβάλλετε χάρτες.


METAR-TAF: